sensor_id;sensor_type;location;lat;lon;timestamp;pressure;altitude;pressure_sealevel;temperature;humidity
74079;BME280;62437;51.544;-3.276;2022-08-06T00:02:06;102283.79;;;14.28;41.52
74079;BME280;62437;51.544;-3.276;2022-08-06T00:04:32;102282.79;;;14.39;40.88
74079;BME280;62437;51.544;-3.276;2022-08-06T00:06:57;102284.89;;;13.99;41.37
74079;BME280;62437;51.544;-3.276;2022-08-06T00:09:23;102285.64;;;14.40;40.83
74079;BME280;62437;51.544;-3.276;2022-08-06T00:11:49;102288.31;;;14.10;41.12
74079;BME280;62437;51.544;-3.276;2022-08-06T00:14:14;102285.97;;;14.16;41.36
74079;BME280;62437;51.544;-3.276;2022-08-06T00:16:40;102281.68;;;14.41;41.18
74079;BME280;62437;51.544;-3.276;2022-08-06T00:19:06;102286.40;;;14.48;41.00
74079;BME280;62437;51.544;-3.276;2022-08-06T00:21:31;102284.80;;;14.38;41.26
74079;BME280;62437;51.544;-3.276;2022-08-06T00:23:56;102283.31;;;13.95;41.36
74079;BME280;62437;51.544;-3.276;2022-08-06T00:26:22;102282.82;;;13.89;41.48
74079;BME280;62437;51.544;-3.276;2022-08-06T00:28:47;102278.99;;;14.40;41.60
74079;BME280;62437;51.544;-3.276;2022-08-06T00:31:13;102280.00;;;14.21;41.67
74079;BME280;62437;51.544;-3.276;2022-08-06T00:33:40;102280.25;;;13.95;42.21
74079;BME280;62437;51.544;-3.276;2022-08-06T00:36:05;102282.44;;;13.71;42.10
74079;BME280;62437;51.544;-3.276;2022-08-06T00:38:30;102281.56;;;14.13;41.48
74079;BME280;62437;51.544;-3.276;2022-08-06T00:40:56;102285.26;;;14.64;41.47
74079;BME280;62437;51.544;-3.276;2022-08-06T00:43:21;102283.89;;;13.94;41.32
74079;BME280;62437;51.544;-3.276;2022-08-06T00:45:48;102284.36;;;13.78;41.34
74079;BME280;62437;51.544;-3.276;2022-08-06T00:48:21;102282.11;;;14.06;41.03
74079;BME280;62437;51.544;-3.276;2022-08-06T00:50:38;102281.30;;;13.84;42.24
74079;BME280;62437;51.544;-3.276;2022-08-06T00:53:04;102282.22;;;13.88;41.71
74079;BME280;62437;51.544;-3.276;2022-08-06T00:55:29;102279.79;;;14.18;41.58
74079;BME280;62437;51.544;-3.276;2022-08-06T00:57:54;102281.31;;;13.66;41.58
74079;BME280;62437;51.544;-3.276;2022-08-06T01:00:20;102280.47;;;14.06;41.83
74079;BME280;62437;51.544;-3.276;2022-08-06T01:02:46;102279.63;;;14.21;41.02
74079;BME280;62437;51.544;-3.276;2022-08-06T01:05:11;102281.70;;;14.11;41.83
74079;BME280;62437;51.544;-3.276;2022-08-06T01:07:37;102277.87;;;13.90;42.40
74079;BME280;62437;51.544;-3.276;2022-08-06T01:10:03;102274.50;;;13.86;42.18
74079;BME280;62437;51.544;-3.276;2022-08-06T01:12:28;102277.54;;;13.45;42.13
74079;BME280;62437;51.544;-3.276;2022-08-06T01:14:53;102275.68;;;14.00;42.31
74079;BME280;62437;51.544;-3.276;2022-08-06T01:17:25;102278.84;;;13.98;42.14
74079;BME280;62437;51.544;-3.276;2022-08-06T01:19:56;102277.98;;;13.77;41.89
74079;BME280;62437;51.544;-3.276;2022-08-06T01:22:19;102278.18;;;13.83;42.23
74079;BME280;62437;51.544;-3.276;2022-08-06T01:24:50;102276.48;;;13.28;42.16
74079;BME280;62437;51.544;-3.276;2022-08-06T01:29:33;102279.63;;;13.82;42.34
74079;BME280;62437;51.544;-3.276;2022-08-06T01:32:05;102279.47;;;14.00;41.41
74079;BME280;62437;51.544;-3.276;2022-08-06T01:34:23;102279.71;;;14.13;41.45
74079;BME280;62437;51.544;-3.276;2022-08-06T01:36:47;102278.91;;;13.90;41.60
74079;BME280;62437;51.544;-3.276;2022-08-06T01:39:10;102274.69;;;13.51;41.93
74079;BME280;62437;51.544;-3.276;2022-08-06T01:41:40;102274.82;;;13.90;41.43
74079;BME280;62437;51.544;-3.276;2022-08-06T01:44:00;102273.38;;;13.83;41.74
74079;BME280;62437;51.544;-3.276;2022-08-06T01:46:25;102272.88;;;13.48;42.46
74079;BME280;62437;51.544;-3.276;2022-08-06T01:48:51;102277.66;;;13.85;41.77
74079;BME280;62437;51.544;-3.276;2022-08-06T01:51:16;102276.23;;;13.68;42.46
74079;BME280;62437;51.544;-3.276;2022-08-06T01:53:42;102278.82;;;13.81;42.13
74079;BME280;62437;51.544;-3.276;2022-08-06T01:56:08;102279.43;;;13.26;42.20
74079;BME280;62437;51.544;-3.276;2022-08-06T01:58:38;102279.32;;;13.34;42.42
74079;BME280;62437;51.544;-3.276;2022-08-06T02:00:59;102279.95;;;13.39;42.43
74079;BME280;62437;51.544;-3.276;2022-08-06T02:03:28;102281.10;;;13.35;42.25
74079;BME280;62437;51.544;-3.276;2022-08-06T02:05:50;102285.98;;;13.30;42.53
74079;BME280;62437;51.544;-3.276;2022-08-06T02:08:18;102283.04;;;13.02;43.21
74079;BME280;62437;51.544;-3.276;2022-08-06T02:10:41;102285.14;;;13.36;42.35
74079;BME280;62437;51.544;-3.276;2022-08-06T02:13:05;102284.07;;;12.98;43.35
74079;BME280;62437;51.544;-3.276;2022-08-06T02:15:34;102286.24;;;12.87;42.48
74079;BME280;62437;51.544;-3.276;2022-08-06T02:17:58;102286.25;;;13.14;43.24
74079;BME280;62437;51.544;-3.276;2022-08-06T02:20:30;102286.06;;;12.91;43.90
74079;BME280;62437;51.544;-3.276;2022-08-06T02:22:48;102286.83;;;12.87;43.05
74079;BME280;62437;51.544;-3.276;2022-08-06T02:25:15;102289.08;;;13.01;43.26
74079;BME280;62437;51.544;-3.276;2022-08-06T02:27:43;102291.16;;;13.10;42.82
74079;BME280;62437;51.544;-3.276;2022-08-06T02:30:05;102289.36;;;12.85;43.38
74079;BME280;62437;51.544;-3.276;2022-08-06T02:32:29;102289.42;;;13.01;43.04
74079;BME280;62437;51.544;-3.276;2022-08-06T02:34:55;102292.81;;;12.80;42.83
74079;BME280;62437;51.544;-3.276;2022-08-06T02:37:23;102291.41;;;12.87;43.96
74079;BME280;62437;51.544;-3.276;2022-08-06T02:39:50;102297.89;;;12.92;42.82
74079;BME280;62437;51.544;-3.276;2022-08-06T02:42:18;102298.44;;;12.62;43.25
74079;BME280;62437;51.544;-3.276;2022-08-06T02:44:44;102295.19;;;12.74;43.60
74079;BME280;62437;51.544;-3.276;2022-08-06T02:47:09;102296.55;;;12.61;43.21
74079;BME280;62437;51.544;-3.276;2022-08-06T02:49:34;102294.48;;;12.79;43.10
74079;BME280;62437;51.544;-3.276;2022-08-06T02:52:00;102298.42;;;13.00;44.00
74079;BME280;62437;51.544;-3.276;2022-08-06T02:54:23;102298.27;;;12.71;42.75
74079;BME280;62437;51.544;-3.276;2022-08-06T02:56:47;102296.94;;;12.83;42.74
74079;BME280;62437;51.544;-3.276;2022-08-06T02:59:14;102299.36;;;12.64;43.09
74079;BME280;62437;51.544;-3.276;2022-08-06T03:01:41;102305.80;;;12.81;42.90
74079;BME280;62437;51.544;-3.276;2022-08-06T03:04:04;102310.69;;;12.92;42.78
74079;BME280;62437;51.544;-3.276;2022-08-06T03:06:32;102313.69;;;12.77;42.05
74079;BME280;62437;51.544;-3.276;2022-08-06T03:08:55;102313.27;;;12.77;42.98
74079;BME280;62437;51.544;-3.276;2022-08-06T03:11:20;102315.09;;;12.93;42.35
74079;BME280;62437;51.544;-3.276;2022-08-06T03:13:45;102315.26;;;12.84;42.42
74079;BME280;62437;51.544;-3.276;2022-08-06T03:16:11;102310.22;;;12.53;42.78
74079;BME280;62437;51.544;-3.276;2022-08-06T03:18:36;102306.39;;;12.25;43.30
74079;BME280;62437;51.544;-3.276;2022-08-06T03:21:01;102303.32;;;12.31;43.28
74079;BME280;62437;51.544;-3.276;2022-08-06T03:23:28;102303.50;;;12.04;44.39
74079;BME280;62437;51.544;-3.276;2022-08-06T03:25:52;102300.99;;;12.50;43.02
74079;BME280;62437;51.544;-3.276;2022-08-06T03:28:18;102301.41;;;12.12;43.51
74079;BME280;62437;51.544;-3.276;2022-08-06T03:30:44;102302.34;;;12.12;43.35
74079;BME280;62437;51.544;-3.276;2022-08-06T03:33:12;102306.44;;;12.58;43.14
74079;BME280;62437;51.544;-3.276;2022-08-06T03:35:35;102315.50;;;12.48;42.91
74079;BME280;62437;51.544;-3.276;2022-08-06T03:38:00;102314.65;;;12.27;43.59
74079;BME280;62437;51.544;-3.276;2022-08-06T03:40:27;102313.99;;;12.23;43.25
74079;BME280;62437;51.544;-3.276;2022-08-06T03:42:51;102313.60;;;11.98;43.22
74079;BME280;62437;51.544;-3.276;2022-08-06T03:45:17;102313.20;;;12.10;43.34
74079;BME280;62437;51.544;-3.276;2022-08-06T03:47:47;102313.21;;;12.52;43.24
74079;BME280;62437;51.544;-3.276;2022-08-06T03:50:13;102313.92;;;11.88;43.76
74079;BME280;62437;51.544;-3.276;2022-08-06T03:52:38;102317.12;;;12.18;43.22
74079;BME280;62437;51.544;-3.276;2022-08-06T03:55:04;102317.20;;;11.94;43.90
74079;BME280;62437;51.544;-3.276;2022-08-06T03:57:31;102318.57;;;11.80;44.50
74079;BME280;62437;51.544;-3.276;2022-08-06T03:59:53;102324.30;;;12.14;43.52
74079;BME280;62437;51.544;-3.276;2022-08-06T04:02:16;102325.52;;;12.01;43.60
74079;BME280;62437;51.544;-3.276;2022-08-06T04:04:41;102325.96;;;11.42;44.25
74079;BME280;62437;51.544;-3.276;2022-08-06T04:07:06;102326.22;;;11.61;44.11
74079;BME280;62437;51.544;-3.276;2022-08-06T04:09:32;102327.15;;;11.48;44.31
74079;BME280;62437;51.544;-3.276;2022-08-06T04:11:57;102329.98;;;11.61;44.56
74079;BME280;62437;51.544;-3.276;2022-08-06T04:14:23;102329.60;;;12.08;43.51
74079;BME280;62437;51.544;-3.276;2022-08-06T04:16:48;102326.85;;;11.81;44.54
74079;BME280;62437;51.544;-3.276;2022-08-06T04:19:14;102324.43;;;11.82;43.03
74079;BME280;62437;51.544;-3.276;2022-08-06T04:21:39;102321.18;;;11.76;43.54
74079;BME280;62437;51.544;-3.276;2022-08-06T04:24:05;102327.26;;;11.95;43.56
74079;BME280;62437;51.544;-3.276;2022-08-06T04:26:30;102331.89;;;11.78;43.85
74079;BME280;62437;51.544;-3.276;2022-08-06T04:28:56;102333.54;;;11.76;43.54
74079;BME280;62437;51.544;-3.276;2022-08-06T04:31:21;102338.25;;;11.85;43.92
74079;BME280;62437;51.544;-3.276;2022-08-06T04:33:46;102336.14;;;12.02;43.85
74079;BME280;62437;51.544;-3.276;2022-08-06T04:36:12;102331.17;;;11.97;42.90
74079;BME280;62437;51.544;-3.276;2022-08-06T04:38:37;102330.98;;;11.70;43.64
74079;BME280;62437;51.544;-3.276;2022-08-06T04:41:03;102330.66;;;11.76;44.28
74079;BME280;62437;51.544;-3.276;2022-08-06T04:43:28;102328.05;;;11.63;43.70
74079;BME280;62437;51.544;-3.276;2022-08-06T04:45:54;102327.86;;;11.78;43.12
74079;BME280;62437;51.544;-3.276;2022-08-06T04:48:20;102333.26;;;11.83;43.70
74079;BME280;62437;51.544;-3.276;2022-08-06T04:50:45;102339.56;;;12.04;43.63
74079;BME280;62437;51.544;-3.276;2022-08-06T04:53:12;102338.98;;;11.71;44.42
74079;BME280;62437;51.544;-3.276;2022-08-06T04:55:36;102342.17;;;11.49;43.72
74079;BME280;62437;51.544;-3.276;2022-08-06T04:58:02;102346.38;;;11.89;43.76
74079;BME280;62437;51.544;-3.276;2022-08-06T05:00:27;102350.27;;;11.69;43.29
74079;BME280;62437;51.544;-3.276;2022-08-06T05:02:52;102357.54;;;11.47;44.68
74079;BME280;62437;51.544;-3.276;2022-08-06T05:05:20;102353.95;;;11.90;43.06
74079;BME280;62437;51.544;-3.276;2022-08-06T05:07:44;102354.72;;;12.07;43.31
74079;BME280;62437;51.544;-3.276;2022-08-06T05:10:10;102354.57;;;11.76;43.33
74079;BME280;62437;51.544;-3.276;2022-08-06T05:12:40;102360.28;;;11.95;43.78
74079;BME280;62437;51.544;-3.276;2022-08-06T05:15:06;102364.63;;;11.89;43.38
74079;BME280;62437;51.544;-3.276;2022-08-06T05:17:32;102370.31;;;12.00;43.22
74079;BME280;62437;51.544;-3.276;2022-08-06T05:19:57;102372.48;;;12.31;43.99
74079;BME280;62437;51.544;-3.276;2022-08-06T05:22:18;102370.88;;;12.09;44.07
74079;BME280;62437;51.544;-3.276;2022-08-06T05:24:42;102366.33;;;11.88;43.89
74079;BME280;62437;51.544;-3.276;2022-08-06T05:27:11;102366.34;;;11.99;43.27
74079;BME280;62437;51.544;-3.276;2022-08-06T05:29:33;102365.06;;;12.08;43.59
74079;BME280;62437;51.544;-3.276;2022-08-06T05:31:59;102364.58;;;12.12;43.01
74079;BME280;62437;51.544;-3.276;2022-08-06T05:34:24;102364.22;;;11.92;43.05
74079;BME280;62437;51.544;-3.276;2022-08-06T05:36:49;102368.93;;;12.25;43.39
74079;BME280;62437;51.544;-3.276;2022-08-06T05:39:14;102372.67;;;12.14;43.13
74079;BME280;62437;51.544;-3.276;2022-08-06T05:41:40;102374.57;;;12.03;42.79
74079;BME280;62437;51.544;-3.276;2022-08-06T05:44:05;102377.70;;;12.66;42.39
74079;BME280;62437;51.544;-3.276;2022-08-06T05:46:34;102375.00;;;12.45;42.77
74079;BME280;62437;51.544;-3.276;2022-08-06T05:49:02;102381.46;;;11.96;43.90
74079;BME280;62437;51.544;-3.276;2022-08-06T05:51:28;102387.86;;;12.31;43.00
74079;BME280;62437;51.544;-3.276;2022-08-06T05:53:50;102392.08;;;12.13;43.06
74079;BME280;62437;51.544;-3.276;2022-08-06T05:56:17;102396.24;;;13.02;42.91
74079;BME280;62437;51.544;-3.276;2022-08-06T05:58:41;102397.31;;;12.71;42.13
74079;BME280;62437;51.544;-3.276;2022-08-06T06:01:05;102397.42;;;12.81;42.46
74079;BME280;62437;51.544;-3.276;2022-08-06T06:03:28;102398.47;;;12.80;42.71
74079;BME280;62437;51.544;-3.276;2022-08-06T06:05:54;102395.11;;;12.92;43.14
74079;BME280;62437;51.544;-3.276;2022-08-06T06:08:19;102394.98;;;13.41;42.59
74079;BME280;62437;51.544;-3.276;2022-08-06T06:10:45;102394.58;;;13.68;42.43
74079;BME280;62437;51.544;-3.276;2022-08-06T06:13:10;102393.93;;;13.51;42.74
74079;BME280;62437;51.544;-3.276;2022-08-06T06:15:40;102397.22;;;13.75;42.16
74079;BME280;62437;51.544;-3.276;2022-08-06T06:18:08;102397.12;;;13.74;42.24
74079;BME280;62437;51.544;-3.276;2022-08-06T06:20:35;102398.23;;;13.98;42.09
74079;BME280;62437;51.544;-3.276;2022-08-06T06:22:57;102400.62;;;13.95;41.57
74079;BME280;62437;51.544;-3.276;2022-08-06T06:25:22;102399.85;;;14.15;41.76
74079;BME280;62437;51.544;-3.276;2022-08-06T06:27:49;102401.41;;;14.17;41.93
74079;BME280;62437;51.544;-3.276;2022-08-06T06:30:10;102400.28;;;14.42;41.53
74079;BME280;62437;51.544;-3.276;2022-08-06T06:32:40;102400.24;;;14.41;41.56
74079;BME280;62437;51.544;-3.276;2022-08-06T06:35:03;102399.02;;;14.53;41.84
74079;BME280;62437;51.544;-3.276;2022-08-06T06:37:39;102402.19;;;14.53;41.49
74079;BME280;62437;51.544;-3.276;2022-08-06T06:39:58;102405.51;;;14.30;42.09
74079;BME280;62437;51.544;-3.276;2022-08-06T06:42:17;102408.45;;;14.44;42.11
74079;BME280;62437;51.544;-3.276;2022-08-06T06:44:46;102413.30;;;14.63;41.96
74079;BME280;62437;51.544;-3.276;2022-08-06T06:47:12;102412.96;;;14.75;42.00
74079;BME280;62437;51.544;-3.276;2022-08-06T06:49:37;102412.35;;;14.68;41.97
74079;BME280;62437;51.544;-3.276;2022-08-06T06:52:03;102410.40;;;14.81;42.21
74079;BME280;62437;51.544;-3.276;2022-08-06T06:54:28;102411.00;;;14.57;42.41
74079;BME280;62437;51.544;-3.276;2022-08-06T06:56:49;102412.25;;;14.89;43.00
74079;BME280;62437;51.544;-3.276;2022-08-06T06:59:18;102410.33;;;14.69;41.89
74079;BME280;62437;51.544;-3.276;2022-08-06T07:01:39;102411.68;;;14.84;43.00
74079;BME280;62437;51.544;-3.276;2022-08-06T07:04:07;102414.61;;;14.79;41.72
74079;BME280;62437;51.544;-3.276;2022-08-06T07:06:30;102418.54;;;14.79;42.81
74079;BME280;62437;51.544;-3.276;2022-08-06T07:08:55;102418.79;;;14.74;42.36
74079;BME280;62437;51.544;-3.276;2022-08-06T07:11:22;102417.89;;;14.61;43.07
74079;BME280;62437;51.544;-3.276;2022-08-06T07:13:47;102418.65;;;14.85;42.50
74079;BME280;62437;51.544;-3.276;2022-08-06T07:16:13;102421.13;;;14.81;42.83
74079;BME280;62437;51.544;-3.276;2022-08-06T07:18:37;102418.20;;;15.14;43.27
74079;BME280;62437;51.544;-3.276;2022-08-06T07:21:03;102418.44;;;15.09;43.63
74079;BME280;62437;51.544;-3.276;2022-08-06T07:23:28;102417.72;;;15.29;43.10
74079;BME280;62437;51.544;-3.276;2022-08-06T07:25:55;102414.92;;;15.06;43.15
74079;BME280;62437;51.544;-3.276;2022-08-06T07:28:19;102412.24;;;15.19;43.85
74079;BME280;62437;51.544;-3.276;2022-08-06T07:30:45;102411.27;;;15.03;43.26
74079;BME280;62437;51.544;-3.276;2022-08-06T07:33:11;102411.44;;;15.39;43.48
74079;BME280;62437;51.544;-3.276;2022-08-06T07:35:41;102409.49;;;15.41;43.47
74079;BME280;62437;51.544;-3.276;2022-08-06T07:38:03;102413.29;;;15.64;42.86
74079;BME280;62437;51.544;-3.276;2022-08-06T07:40:32;102415.47;;;15.59;42.66
74079;BME280;62437;51.544;-3.276;2022-08-06T07:43:00;102414.19;;;15.45;42.84
74079;BME280;62437;51.544;-3.276;2022-08-06T07:45:18;102412.38;;;15.63;42.52
74079;BME280;62437;51.544;-3.276;2022-08-06T07:47:45;102413.45;;;16.12;43.14
74079;BME280;62437;51.544;-3.276;2022-08-06T07:50:12;102417.26;;;15.66;42.69
74079;BME280;62437;51.544;-3.276;2022-08-06T07:52:35;102416.45;;;16.03;42.17
74079;BME280;62437;51.544;-3.276;2022-08-06T07:55:01;102415.41;;;16.20;41.99
74079;BME280;62437;51.544;-3.276;2022-08-06T07:57:26;102418.24;;;16.18;42.19
74079;BME280;62437;51.544;-3.276;2022-08-06T07:59:52;102419.41;;;16.01;42.23
74079;BME280;62437;51.544;-3.276;2022-08-06T08:02:17;102421.48;;;16.34;42.29
74079;BME280;62437;51.544;-3.276;2022-08-06T08:04:42;102420.85;;;16.23;41.73
74079;BME280;62437;51.544;-3.276;2022-08-06T08:07:08;102419.12;;;16.72;41.47
74079;BME280;62437;51.544;-3.276;2022-08-06T08:09:33;102416.71;;;16.53;41.66
74079;BME280;62437;51.544;-3.276;2022-08-06T08:11:59;102420.70;;;16.41;41.64
74079;BME280;62437;51.544;-3.276;2022-08-06T08:14:26;102417.86;;;16.59;41.18
74079;BME280;62437;51.544;-3.276;2022-08-06T08:16:50;102416.63;;;16.57;41.08
74079;BME280;62437;51.544;-3.276;2022-08-06T08:19:22;102417.68;;;16.62;40.96
74079;BME280;62437;51.544;-3.276;2022-08-06T08:21:40;102420.31;;;17.11;40.77
74079;BME280;62437;51.544;-3.276;2022-08-06T08:24:06;102422.37;;;17.10;40.15
74079;BME280;62437;51.544;-3.276;2022-08-06T08:26:31;102425.29;;;17.14;39.51
74079;BME280;62437;51.544;-3.276;2022-08-06T08:28:56;102423.57;;;16.93;40.35
74079;BME280;62437;51.544;-3.276;2022-08-06T08:31:22;102424.54;;;17.40;39.43
74079;BME280;62437;51.544;-3.276;2022-08-06T08:33:48;102422.94;;;17.00;39.75
74079;BME280;62437;51.544;-3.276;2022-08-06T08:36:13;102429.01;;;17.51;39.05
74079;BME280;62437;51.544;-3.276;2022-08-06T08:38:39;102432.06;;;17.57;38.83
74079;BME280;62437;51.544;-3.276;2022-08-06T08:41:09;102434.19;;;17.48;39.15
74079;BME280;62437;51.544;-3.276;2022-08-06T08:43:36;102434.19;;;17.93;39.70
74079;BME280;62437;51.544;-3.276;2022-08-06T08:45:57;102429.24;;;18.15;37.15
74079;BME280;62437;51.544;-3.276;2022-08-06T08:48:24;102428.82;;;18.06;37.90
74079;BME280;62437;51.544;-3.276;2022-08-06T08:50:47;102424.79;;;18.49;39.22
74079;BME280;62437;51.544;-3.276;2022-08-06T08:53:13;102427.76;;;18.48;38.27
74079;BME280;62437;51.544;-3.276;2022-08-06T08:55:38;102428.93;;;18.59;38.53
74079;BME280;62437;51.544;-3.276;2022-08-06T08:58:02;102430.11;;;18.48;38.56
74079;BME280;62437;51.544;-3.276;2022-08-06T09:00:28;102431.79;;;18.56;38.11
74079;BME280;62437;51.544;-3.276;2022-08-06T09:02:54;102424.62;;;18.95;38.96
74079;BME280;62437;51.544;-3.276;2022-08-06T09:05:20;102424.67;;;19.12;38.18
74079;BME280;62437;51.544;-3.276;2022-08-06T09:07:45;102424.51;;;19.53;38.05
74079;BME280;62437;51.544;-3.276;2022-08-06T09:10:11;102422.21;;;18.95;38.64
74079;BME280;62437;51.544;-3.276;2022-08-06T09:12:36;102419.84;;;19.28;38.60
74079;BME280;62437;51.544;-3.276;2022-08-06T09:15:02;102420.15;;;19.16;38.27
74079;BME280;62437;51.544;-3.276;2022-08-06T09:17:29;102421.33;;;19.57;38.51
74079;BME280;62437;51.544;-3.276;2022-08-06T09:19:52;102417.85;;;19.67;37.56
74079;BME280;62437;51.544;-3.276;2022-08-06T09:22:18;102416.89;;;19.70;38.16
74079;BME280;62437;51.544;-3.276;2022-08-06T09:24:44;102422.31;;;19.79;38.74
74079;BME280;62437;51.544;-3.276;2022-08-06T09:27:11;102424.20;;;19.60;38.48
74079;BME280;62437;51.544;-3.276;2022-08-06T09:29:37;102424.24;;;19.82;37.32
74079;BME280;62437;51.544;-3.276;2022-08-06T09:32:02;102426.30;;;20.14;37.43
74079;BME280;62437;51.544;-3.276;2022-08-06T09:34:31;102429.47;;;20.09;37.05
74079;BME280;62437;51.544;-3.276;2022-08-06T09:36:52;102433.70;;;20.37;37.33
74079;BME280;62437;51.544;-3.276;2022-08-06T09:39:31;102433.74;;;20.41;38.25
74079;BME280;62437;51.544;-3.276;2022-08-06T09:41:49;102432.45;;;20.94;37.37
74079;BME280;62437;51.544;-3.276;2022-08-06T09:44:10;102434.01;;;20.22;38.24
74079;BME280;62437;51.544;-3.276;2022-08-06T09:46:37;102434.60;;;20.74;36.75
74079;BME280;62437;51.544;-3.276;2022-08-06T09:49:00;102434.05;;;20.93;37.64
74079;BME280;62437;51.544;-3.276;2022-08-06T09:51:25;102433.21;;;20.59;38.39
74079;BME280;62437;51.544;-3.276;2022-08-06T09:53:54;102431.10;;;20.51;38.02
74079;BME280;62437;51.544;-3.276;2022-08-06T09:56:16;102432.48;;;20.54;39.44
74079;BME280;62437;51.544;-3.276;2022-08-06T09:58:41;102433.22;;;20.75;38.87
74079;BME280;62437;51.544;-3.276;2022-08-06T10:01:12;102432.27;;;20.96;38.65
74079;BME280;62437;51.544;-3.276;2022-08-06T10:03:38;102431.74;;;20.82;38.00
74079;BME280;62437;51.544;-3.276;2022-08-06T10:06:04;102430.74;;;20.89;37.28
74079;BME280;62437;51.544;-3.276;2022-08-06T10:08:28;102427.90;;;20.97;37.73
74079;BME280;62437;51.544;-3.276;2022-08-06T10:10:50;102424.52;;;21.06;36.68
74079;BME280;62437;51.544;-3.276;2022-08-06T10:13:17;102425.23;;;20.93;37.04
74079;BME280;62437;51.544;-3.276;2022-08-06T10:15:41;102426.70;;;21.38;36.72
74079;BME280;62437;51.544;-3.276;2022-08-06T10:18:06;102425.87;;;21.43;35.97
74079;BME280;62437;51.544;-3.276;2022-08-06T10:20:32;102422.63;;;21.54;35.13
74079;BME280;62437;51.544;-3.276;2022-08-06T10:22:57;102421.23;;;21.24;34.74
74079;BME280;62437;51.544;-3.276;2022-08-06T10:25:24;102420.03;;;21.09;36.19
74079;BME280;62437;51.544;-3.276;2022-08-06T10:27:54;102423.26;;;21.63;35.90
74079;BME280;62437;51.544;-3.276;2022-08-06T10:30:15;102421.49;;;21.34;34.46
74079;BME280;62437;51.544;-3.276;2022-08-06T10:32:47;102418.15;;;21.19;35.25
74079;BME280;62437;51.544;-3.276;2022-08-06T10:35:07;102417.10;;;21.67;35.56
74079;BME280;62437;51.544;-3.276;2022-08-06T10:37:37;102412.81;;;22.12;34.82
74079;BME280;62437;51.544;-3.276;2022-08-06T10:39:59;102409.88;;;22.13;34.90
74079;BME280;62437;51.544;-3.276;2022-08-06T10:42:23;102413.86;;;21.87;35.49
74079;BME280;62437;51.544;-3.276;2022-08-06T10:44:49;102410.31;;;21.75;34.42
74079;BME280;62437;51.544;-3.276;2022-08-06T10:47:14;102411.44;;;22.04;34.96
74079;BME280;62437;51.544;-3.276;2022-08-06T10:49:39;102411.72;;;22.47;34.90
74079;BME280;62437;51.544;-3.276;2022-08-06T10:52:05;102409.00;;;22.73;34.69
74079;BME280;62437;51.544;-3.276;2022-08-06T10:54:31;102409.94;;;23.11;33.02
74079;BME280;62437;51.544;-3.276;2022-08-06T10:56:56;102406.56;;;22.32;34.26
74079;BME280;62437;51.544;-3.276;2022-08-06T10:59:22;102411.26;;;22.45;33.73
74079;BME280;62437;51.544;-3.276;2022-08-06T11:01:53;102406.95;;;22.18;34.03
74079;BME280;62437;51.544;-3.276;2022-08-06T11:04:23;102408.65;;;22.47;33.76
74079;BME280;62437;51.544;-3.276;2022-08-06T11:09:20;102402.72;;;22.82;33.19
74079;BME280;62437;51.544;-3.276;2022-08-06T11:11:43;102405.71;;;22.58;33.58
74079;BME280;62437;51.544;-3.276;2022-08-06T11:14:02;102400.97;;;22.47;32.55
74079;BME280;62437;51.544;-3.276;2022-08-06T11:16:23;102399.06;;;22.70;33.93
74079;BME280;62437;51.544;-3.276;2022-08-06T11:18:57;102396.87;;;22.72;33.11
74079;BME280;62437;51.544;-3.276;2022-08-06T11:23:38;102391.85;;;23.16;32.36
74079;BME280;62437;51.544;-3.276;2022-08-06T11:26:04;102396.33;;;23.47;32.90
74079;BME280;62437;51.544;-3.276;2022-08-06T11:30:57;102391.60;;;23.25;30.79
74079;BME280;62437;51.544;-3.276;2022-08-06T11:33:21;102396.84;;;22.90;32.53
74079;BME280;62437;51.544;-3.276;2022-08-06T11:35:47;102395.86;;;22.74;32.28
74079;BME280;62437;51.544;-3.276;2022-08-06T11:38:13;102390.16;;;22.46;32.53
74079;BME280;62437;51.544;-3.276;2022-08-06T11:40:55;102389.46;;;22.35;33.85
74079;BME280;62437;51.544;-3.276;2022-08-06T11:43:03;102386.12;;;22.87;33.19
74079;BME280;62437;51.544;-3.276;2022-08-06T11:45:28;102380.35;;;22.84;32.12
74079;BME280;62437;51.544;-3.276;2022-08-06T11:48:03;102370.14;;;23.29;32.22
74079;BME280;62437;51.544;-3.276;2022-08-06T11:50:24;102365.00;;;23.00;32.78
74079;BME280;62437;51.544;-3.276;2022-08-06T11:52:45;102364.39;;;23.59;33.36
74079;BME280;62437;51.544;-3.276;2022-08-06T11:55:13;102364.41;;;23.50;32.69
74079;BME280;62437;51.544;-3.276;2022-08-06T11:57:36;102363.89;;;23.90;33.38
74079;BME280;62437;51.544;-3.276;2022-08-06T12:00:10;102357.00;;;23.79;31.80
74079;BME280;62437;51.544;-3.276;2022-08-06T12:02:45;102360.20;;;23.76;32.89
74079;BME280;62437;51.544;-3.276;2022-08-06T12:04:52;102355.43;;;23.86;31.93
74079;BME280;62437;51.544;-3.276;2022-08-06T12:07:20;102355.27;;;23.99;31.94
74079;BME280;62437;51.544;-3.276;2022-08-06T12:09:44;102361.45;;;23.38;32.59
74079;BME280;62437;51.544;-3.276;2022-08-06T12:14:40;102359.62;;;23.37;32.37
74079;BME280;62437;51.544;-3.276;2022-08-06T12:17:10;102358.45;;;23.30;31.64
74079;BME280;62437;51.544;-3.276;2022-08-06T12:19:25;102354.72;;;23.16;31.60
74079;BME280;62437;51.544;-3.276;2022-08-06T12:21:52;102353.17;;;22.95;30.97
74079;BME280;62437;51.544;-3.276;2022-08-06T12:24:22;102348.12;;;23.79;31.60
74079;BME280;62437;51.544;-3.276;2022-08-06T12:26:42;102345.95;;;23.78;31.65
74079;BME280;62437;51.544;-3.276;2022-08-06T12:29:07;102342.92;;;23.76;31.15
74079;BME280;62437;51.544;-3.276;2022-08-06T12:31:36;102341.89;;;23.38;30.32
74079;BME280;62437;51.544;-3.276;2022-08-06T12:33:59;102343.17;;;23.31;31.99
74079;BME280;62437;51.544;-3.276;2022-08-06T12:36:29;102345.22;;;23.13;32.22
74079;BME280;62437;51.544;-3.276;2022-08-06T12:38:53;102341.35;;;23.01;31.92
74079;BME280;62437;51.544;-3.276;2022-08-06T12:41:15;102338.62;;;23.08;32.50
74079;BME280;62437;51.544;-3.276;2022-08-06T12:43:42;102337.93;;;23.16;32.02